createdAt,value
2022-09-01T00:00:01.250Z,2.10
2022-09-01T00:02:29.397Z,1.80
2022-09-01T00:04:58.954Z,2.10
2022-09-01T00:07:30.446Z,1.98
2022-09-01T00:09:59.258Z,2.03
2022-09-01T00:12:26.721Z,2.20
2022-09-01T00:14:54.643Z,1.90
2022-09-01T00:17:21.651Z,2.15
2022-09-01T00:19:48.540Z,2.70
2022-09-01T00:22:15.530Z,2.53
2022-09-01T00:24:42.496Z,2.78
2022-09-01T00:27:09.492Z,2.78
2022-09-01T00:29:36.814Z,2.25
2022-09-01T00:32:04.093Z,2.60
2022-09-01T00:34:31.124Z,2.33
2022-09-01T00:36:57.993Z,2.33
2022-09-01T00:39:25.064Z,2.40
2022-09-01T00:41:52.513Z,2.58
2022-09-01T00:44:24.378Z,2.72
2022-09-01T00:46:55.125Z,3.05
2022-09-01T00:49:35.044Z,2.78
2022-09-01T00:52:19.298Z,2.78
2022-09-01T00:54:53.618Z,3.03
2022-09-01T00:57:21.417Z,2.97
2022-09-01T00:59:58.056Z,3.20
2022-09-01T01:02:26.554Z,2.83
2022-09-01T01:04:56.176Z,3.03
2022-09-01T01:07:24.087Z,2.70
2022-09-01T01:09:51.948Z,3.08
2022-09-01T01:12:19.955Z,3.10
2022-09-01T01:14:51.897Z,3.45
2022-09-01T01:17:21.380Z,3.08
2022-09-01T01:20:15.354Z,3.53
2022-09-01T01:23:16.231Z,3.28
2022-09-01T01:25:48.775Z,3.15
2022-09-01T01:28:27.079Z,3.35
2022-09-01T01:30:57.900Z,3.40
2022-09-01T01:33:46.671Z,3.35
2022-09-01T01:36:19.560Z,3.38
2022-09-01T01:41:18.037Z,3.58
2022-09-01T01:43:44.945Z,3.33
2022-09-01T01:46:14.496Z,3.50
2022-09-01T01:48:42.837Z,3.72
2022-09-01T01:51:11.929Z,3.47
2022-09-01T01:53:39.928Z,3.65
2022-09-01T01:56:09.074Z,3.40
2022-09-01T01:58:36.238Z,3.53
2022-09-01T02:01:03.732Z,3.55
2022-09-01T02:03:38.615Z,3.55
2022-09-01T02:06:11.942Z,3.83
2022-09-01T02:08:40.871Z,3.50
2022-09-01T02:11:09.173Z,3.30
2022-09-01T02:13:36.233Z,3.83
2022-09-01T02:16:07.858Z,3.45
2022-09-01T02:18:38.416Z,3.45
2022-09-01T02:21:15.059Z,3.83
2022-09-01T02:23:44.596Z,3.53
2022-09-01T02:26:19.352Z,3.70
2022-09-01T02:28:54.274Z,3.78
2022-09-01T02:31:23.244Z,3.85
2022-09-01T02:33:51.114Z,3.60
2022-09-01T02:36:19.718Z,3.67
2022-09-01T02:38:53.073Z,3.50
2022-09-01T02:41:23.791Z,3.42
2022-09-01T02:43:51.293Z,3.67
2022-09-01T02:46:24.604Z,3.90
2022-09-01T02:48:52.657Z,3.35
2022-09-01T02:51:25.594Z,3.20
2022-09-01T02:53:53.275Z,3.80
2022-09-01T02:56:25.562Z,3.70
2022-09-01T02:58:54.012Z,4.03
2022-09-01T03:01:30.250Z,4.03
2022-09-01T03:04:05.849Z,3.40
2022-09-01T03:06:34.603Z,3.80
2022-09-01T03:09:03.033Z,4.05
2022-09-01T03:11:32.600Z,3.80
2022-09-01T03:14:00.184Z,3.97
2022-09-01T03:16:27.846Z,3.85
2022-09-01T03:18:54.773Z,3.83
2022-09-01T03:21:23.385Z,4.10
2022-09-01T03:23:52.155Z,3.78
2022-09-01T03:26:22.226Z,4.38
2022-09-01T03:28:51.344Z,3.60
2022-09-01T03:31:20.183Z,4.25
2022-09-01T03:33:47.695Z,4.38
2022-09-01T03:36:19.498Z,3.75
2022-09-01T03:38:50.967Z,4.25
2022-09-01T03:41:22.467Z,4.07
2022-09-01T03:43:51.269Z,4.32
2022-09-01T03:46:21.596Z,4.05
2022-09-01T03:48:58.787Z,4.13
2022-09-01T03:51:26.316Z,3.67
2022-09-01T03:53:55.133Z,3.95
2022-09-01T03:56:29.652Z,4.07
2022-09-01T03:58:58.907Z,4.15
2022-09-01T04:01:28.270Z,4.05
2022-09-01T04:03:55.289Z,3.92
2022-09-01T04:06:24.279Z,4.65
2022-09-01T04:08:56.902Z,4.18
2022-09-01T04:11:24.297Z,4.50
2022-09-01T04:13:52.461Z,3.97
2022-09-01T04:16:46.435Z,4.30
2022-09-01T04:19:26.131Z,4.22
2022-09-01T04:21:56.103Z,3.90
2022-09-01T04:24:24.870Z,4.22
2022-09-01T04:26:52.825Z,4.00
2022-09-01T04:29:27.776Z,4.28
2022-09-01T04:32:02.695Z,4.20
2022-09-01T04:34:37.579Z,4.18
2022-09-01T04:37:08.844Z,4.30
2022-09-01T04:39:36.948Z,4.70
2022-09-01T04:42:09.253Z,5.00
2022-09-01T04:44:36.779Z,4.55
2022-09-01T04:47:03.764Z,4.47
2022-09-01T04:49:33.835Z,4.95
2022-09-01T04:52:00.980Z,4.15
2022-09-01T04:54:27.984Z,4.95
2022-09-01T04:56:55.103Z,4.82
2022-09-01T04:59:24.717Z,4.65
2022-09-01T05:01:54.940Z,4.25
2022-09-01T05:04:25.201Z,4.43
2022-09-01T05:06:57.144Z,4.05
2022-09-01T05:09:25.280Z,4.40
2022-09-01T05:11:53.070Z,4.85
2022-09-01T05:14:21.526Z,4.57
2022-09-01T05:16:49.267Z,4.35
2022-09-01T05:19:20.998Z,4.35
2022-09-01T05:21:48.448Z,4.20
2022-09-01T05:24:21.916Z,4.85
2022-09-01T05:26:50.716Z,4.45
2022-09-01T05:29:19.116Z,4.05
2022-09-01T05:31:49.585Z,4.63
2022-09-01T05:34:27.079Z,4.13
2022-09-01T05:36:59.317Z,4.32
2022-09-01T05:39:27.400Z,4.37
2022-09-01T05:41:54.845Z,4.05
2022-09-01T05:44:23.037Z,4.28
2022-09-01T05:46:50.629Z,4.38
2022-09-01T05:49:18.665Z,3.92
2022-09-01T05:51:51.906Z,4.45
2022-09-01T05:54:25.783Z,4.30
2022-09-01T05:56:53.742Z,3.63
2022-09-01T05:59:25.587Z,3.92
2022-09-01T06:01:54.594Z,4.05
2022-09-01T06:04:23.035Z,3.88
2022-09-01T06:07:07.798Z,3.78
2022-09-01T06:09:47.683Z,4.57
2022-09-01T06:12:20.400Z,4.57
2022-09-01T06:14:48.651Z,4.00
2022-09-01T06:17:17.029Z,3.95
2022-09-01T06:19:45.060Z,3.88
2022-09-01T06:22:12.325Z,3.97
2022-09-01T06:24:41.010Z,3.42
2022-09-01T06:27:11.901Z,4.07
2022-09-01T06:29:39.913Z,4.18
2022-09-01T06:32:10.576Z,4.15
2022-09-01T06:34:42.693Z,4.20
2022-09-01T06:37:13.499Z,6.47
2022-09-01T06:39:40.463Z,3.28
2022-09-01T06:42:13.828Z,3.15
2022-09-01T06:44:41.215Z,3.20
2022-09-01T06:47:09.183Z,2.97
2022-09-01T06:49:36.778Z,2.38
2022-09-01T06:52:04.490Z,2.75
2022-09-01T06:54:35.667Z,3.33
2022-09-01T06:59:52.640Z,2.65
2022-09-01T07:05:59.848Z,2.75
2022-09-01T07:08:06.190Z,2.70
2022-09-01T07:10:33.359Z,2.60
2022-09-01T07:13:09.003Z,2.25
2022-09-01T07:18:31.652Z,1.90
2022-09-01T07:21:07.047Z,2.42
2022-09-01T07:24:10.881Z,2.30
2022-09-01T07:26:26.469Z,2.00
2022-09-01T07:29:01.032Z,2.08
2022-09-01T07:39:54.936Z,1.38
2022-09-01T07:42:59.096Z,2.65
2022-09-01T07:45:27.535Z,1.85
2022-09-01T07:47:55.769Z,1.23
2022-09-01T07:50:38.550Z,1.45
2022-09-01T07:53:06.634Z,1.50
2022-09-01T07:55:34.840Z,1.50
2022-09-01T07:58:01.745Z,2.45
2022-09-01T08:00:31.867Z,1.40
2022-09-01T08:02:59.174Z,1.77
2022-09-01T08:05:27.350Z,1.77
2022-09-01T08:07:55.096Z,1.30
2022-09-01T08:10:22.168Z,1.20
2022-09-01T08:12:56.422Z,1.48
2022-09-01T08:15:41.061Z,1.27
2022-09-01T08:18:09.403Z,1.40
2022-09-01T08:20:39.985Z,1.75
2022-09-01T08:23:07.328Z,1.48
2022-09-01T08:25:39.578Z,1.60
2022-09-01T08:28:07.820Z,1.45
2022-09-01T08:30:36.021Z,1.60
2022-09-01T08:33:10.750Z,1.20
2022-09-01T08:35:42.418Z,1.65
2022-09-01T08:38:10.112Z,1.50
2022-09-01T08:40:40.800Z,1.40
2022-09-01T08:43:21.412Z,1.55
2022-09-01T08:45:55.194Z,1.33
2022-09-01T08:51:48.068Z,1.30
2022-09-01T08:54:42.576Z,1.55
2022-09-01T08:57:34.755Z,1.35
2022-09-01T09:00:01.952Z,1.83
2022-09-01T09:02:53.902Z,1.70
2022-09-01T09:05:58.854Z,1.52
2022-09-01T09:08:36.851Z,1.50
2022-09-01T09:11:28.363Z,1.67
2022-09-01T09:14:30.047Z,2.00
2022-09-01T09:16:57.645Z,1.63
2022-09-01T09:19:26.527Z,1.30
2022-09-01T09:21:55.715Z,1.15
2022-09-01T09:24:53.007Z,1.70
2022-09-01T09:27:22.189Z,1.50
2022-09-01T09:29:55.061Z,1.30
2022-09-01T09:35:23.824Z,1.10
2022-09-01T09:37:56.801Z,1.35
2022-09-01T09:40:27.639Z,1.42
2022-09-01T09:42:54.652Z,1.45
2022-09-01T09:45:48.050Z,1.52
2022-09-01T09:48:31.570Z,1.77
2022-09-01T09:51:22.160Z,1.33
2022-09-01T09:53:49.984Z,1.60
2022-09-01T09:56:24.992Z,1.45
2022-09-01T09:58:53.543Z,1.30
2022-09-01T10:01:24.563Z,1.50
2022-09-01T10:04:04.282Z,1.17
2022-09-01T10:06:46.846Z,1.55
2022-09-01T10:09:33.648Z,1.35
2022-09-01T10:12:02.641Z,1.85
2022-09-01T10:14:52.001Z,1.55
2022-09-01T10:17:35.967Z,1.65
2022-09-01T10:20:11.456Z,1.63
2022-09-01T10:22:39.805Z,1.60
2022-09-01T10:25:11.203Z,1.48
2022-09-01T10:27:42.324Z,1.80
2022-09-01T10:30:18.903Z,1.42
2022-09-01T10:32:57.038Z,1.60
2022-09-01T10:35:45.833Z,1.60
2022-09-01T10:38:31.197Z,1.95
2022-09-01T10:41:14.276Z,1.75
2022-09-01T10:43:50.527Z,1.60
2022-09-01T10:46:24.746Z,1.50
2022-09-01T10:48:56.642Z,2.10
2022-09-01T10:51:36.261Z,1.90
2022-09-01T10:54:06.831Z,1.23
2022-09-01T10:56:51.736Z,1.80
2022-09-01T10:59:33.615Z,1.75
2022-09-01T11:02:28.526Z,1.70
2022-09-01T11:05:10.295Z,2.13
2022-09-01T11:07:59.792Z,1.75
2022-09-01T11:10:50.153Z,1.88
2022-09-01T11:13:49.071Z,1.80
2022-09-01T11:16:49.582Z,2.38
2022-09-01T11:19:32.017Z,2.08
2022-09-01T11:22:07.838Z,1.60
2022-09-01T11:24:50.827Z,1.90
2022-09-01T11:28:03.675Z,1.83
2022-09-01T11:30:41.898Z,1.60
2022-09-01T11:33:26.410Z,1.92
2022-09-01T11:36:01.112Z,1.90
2022-09-01T11:38:29.470Z,2.03
2022-09-01T11:40:57.615Z,1.95
2022-09-01T11:43:27.238Z,1.80
2022-09-01T11:46:20.922Z,1.77
2022-09-01T11:48:51.787Z,2.10
2022-09-01T11:51:21.481Z,1.92
2022-09-01T11:53:50.533Z,1.92
2022-09-01T11:56:18.931Z,2.10
2022-09-01T11:58:46.020Z,2.35
2022-09-01T12:01:17.823Z,2.20
2022-09-01T12:03:47.138Z,1.92
2022-09-01T12:06:23.019Z,2.00
2022-09-01T12:09:04.146Z,2.00
2022-09-01T12:11:34.817Z,2.17
2022-09-01T12:14:08.962Z,2.33
2022-09-01T12:16:42.466Z,2.38
2022-09-01T12:19:24.087Z,1.90
2022-09-01T12:22:04.936Z,1.85
2022-09-01T12:24:35.942Z,2.35
2022-09-01T12:27:04.959Z,1.90
2022-09-01T12:29:33.226Z,1.92
2022-09-01T12:32:01.784Z,2.17
2022-09-01T12:34:42.653Z,2.20
2022-09-01T12:37:21.405Z,2.40
2022-09-01T12:40:12.987Z,2.33
2022-09-01T12:42:50.563Z,1.97
2022-09-01T12:45:40.893Z,2.30
2022-09-01T12:48:24.005Z,2.03
2022-09-01T12:50:51.673Z,2.22
2022-09-01T12:53:21.660Z,1.95
2022-09-01T12:56:05.055Z,1.90
2022-09-01T12:58:33.225Z,1.92
2022-09-01T13:01:02.220Z,1.88
2022-09-01T13:03:30.255Z,2.15
2022-09-01T13:05:59.979Z,2.00
2022-09-01T13:08:30.669Z,1.83
2022-09-01T13:11:11.411Z,2.58
2022-09-01T13:13:38.459Z,1.95
2022-09-01T13:16:13.065Z,1.67
2022-09-01T13:21:30.613Z,2.05
2022-09-01T13:23:58.105Z,2.10
2022-09-01T13:26:26.342Z,2.38
2022-09-01T13:28:53.947Z,1.70
2022-09-01T13:31:29.069Z,1.90
2022-09-01T13:34:22.503Z,1.77
2022-09-01T13:36:46.325Z,1.90
2022-09-01T13:39:15.871Z,1.90
2022-09-01T13:41:43.258Z,1.90
2022-09-01T13:44:11.700Z,1.73
2022-09-01T13:52:13.328Z,1.77
2022-09-01T13:54:40.343Z,2.17
2022-09-01T13:57:07.685Z,1.90
2022-09-01T13:59:34.824Z,2.05
2022-09-01T14:02:01.811Z,1.85
2022-09-01T14:04:29.108Z,1.80
2022-09-01T14:06:56.580Z,1.98
2022-09-01T14:09:25.700Z,1.95
2022-09-01T14:11:57.168Z,1.98
2022-09-01T14:14:24.534Z,2.10
2022-09-01T14:16:52.012Z,2.22
2022-09-01T14:19:19.093Z,2.40
2022-09-01T14:21:47.409Z,2.00
2022-09-01T14:24:15.216Z,1.90
2022-09-01T14:26:42.508Z,2.08
2022-09-01T14:29:09.599Z,1.73
2022-09-01T14:31:37.928Z,2.00
2022-09-01T14:34:06.860Z,1.75
2022-09-01T14:36:33.830Z,2.30
2022-09-01T14:39:00.807Z,2.10
2022-09-01T14:41:27.688Z,2.00
2022-09-01T14:44:02.783Z,2.00
2022-09-01T14:46:33.982Z,1.88
2022-09-01T14:49:02.311Z,2.13
2022-09-01T14:54:17.930Z,2.13
2022-09-01T14:57:28.565Z,1.90
2022-09-01T14:59:33.056Z,1.80
2022-09-01T15:02:00.133Z,1.67
2022-09-01T15:04:27.987Z,1.80
2022-09-01T15:06:55.455Z,1.80
2022-09-01T15:09:22.812Z,1.67
2022-09-01T15:11:49.818Z,2.00
2022-09-01T15:14:16.987Z,1.60
2022-09-01T15:16:44.530Z,1.50
2022-09-01T15:19:13.776Z,1.40
2022-09-01T15:21:43.503Z,1.27
2022-09-01T15:24:10.965Z,1.30
2022-09-01T15:26:40.827Z,1.40
2022-09-01T15:29:12.020Z,1.50
2022-09-01T15:31:39.917Z,1.60
2022-09-01T15:34:07.514Z,1.55
2022-09-01T15:36:40.138Z,1.60
2022-09-01T15:39:09.266Z,1.50
2022-09-01T15:41:36.448Z,1.58
2022-09-01T15:44:07.073Z,1.60
2022-09-01T15:46:35.987Z,1.60
2022-09-01T15:49:06.568Z,1.30
2022-09-01T15:51:36.863Z,1.70
2022-09-01T15:54:12.755Z,1.50
2022-09-01T15:56:40.352Z,1.98
2022-09-01T15:59:08.750Z,2.13
2022-09-01T16:01:39.150Z,1.58
2022-09-01T16:04:08.394Z,1.70
2022-09-01T16:06:36.016Z,1.63
2022-09-01T16:09:03.056Z,1.45
2022-09-01T16:11:30.034Z,2.33
2022-09-01T16:13:57.052Z,1.65
2022-09-01T16:16:45.033Z,1.48
2022-09-01T16:19:32.023Z,1.75
2022-09-01T16:22:18.507Z,1.48
2022-09-01T16:24:49.077Z,1.10
2022-09-01T16:27:19.193Z,1.90
2022-09-01T16:29:53.166Z,1.75
2022-09-01T16:32:23.288Z,1.42
2022-09-01T16:34:52.028Z,1.40
2022-09-01T16:37:42.790Z,1.95
2022-09-01T16:40:47.112Z,1.50
2022-09-01T16:43:30.295Z,1.42
2022-09-01T16:46:07.569Z,1.60
2022-09-01T16:48:46.838Z,1.58
2022-09-01T16:51:46.062Z,1.50
2022-09-01T16:54:44.943Z,1.60
2022-09-01T16:57:54.159Z,1.40
2022-09-01T17:00:30.686Z,1.48
2022-09-01T17:03:19.263Z,1.60
2022-09-01T17:05:54.909Z,1.63
2022-09-01T17:08:31.062Z,1.40
2022-09-01T17:11:04.795Z,1.58
2022-09-01T17:13:32.586Z,1.50
2022-09-01T17:16:08.190Z,1.50
2022-09-01T17:18:40.763Z,1.58
2022-09-01T17:21:11.342Z,1.75
2022-09-01T17:23:46.416Z,1.55
2022-09-01T17:26:23.632Z,1.70
2022-09-01T17:29:24.553Z,1.80
2022-09-01T17:32:31.049Z,1.55
2022-09-01T17:35:19.284Z,1.30
2022-09-01T17:38:19.422Z,1.35
2022-09-01T17:41:13.699Z,1.40
2022-09-01T17:44:21.656Z,1.60
2022-09-01T17:47:03.042Z,1.38
2022-09-01T17:49:55.945Z,1.40
2022-09-01T17:52:47.448Z,1.42
2022-09-01T17:55:38.166Z,1.63
2022-09-01T17:58:27.032Z,1.73
2022-09-01T18:01:09.992Z,2.00
2022-09-01T18:03:58.075Z,1.60
2022-09-01T18:06:36.738Z,1.85
2022-09-01T18:09:04.084Z,2.00
2022-09-01T18:11:52.475Z,2.10
2022-09-01T18:14:33.201Z,2.17
2022-09-01T18:17:15.180Z,2.00
2022-09-01T18:19:48.028Z,2.13
2022-09-01T18:24:58.978Z,1.90
2022-09-01T18:27:29.977Z,2.03
2022-09-01T18:30:01.535Z,2.03
2022-09-01T18:32:37.788Z,2.00
2022-09-01T18:35:33.537Z,1.65
2022-09-01T18:38:45.075Z,1.90
2022-09-01T18:41:33.707Z,2.15
2022-09-01T18:44:37.070Z,1.83
2022-09-01T18:47:08.855Z,2.20
2022-09-01T18:49:41.683Z,1.90
2022-09-01T18:54:58.586Z,2.00
2022-09-01T18:57:37.399Z,1.88
2022-09-01T19:00:18.628Z,1.88
2022-09-01T19:03:27.725Z,2.00
2022-09-01T19:06:06.550Z,2.40
2022-09-01T19:08:57.365Z,2.50
2022-09-01T19:11:41.430Z,2.10
2022-09-01T19:14:35.185Z,2.45
2022-09-01T19:17:14.380Z,2.05
2022-09-01T19:20:10.742Z,1.98
2022-09-01T19:22:50.567Z,2.60
2022-09-01T19:25:36.868Z,2.78
2022-09-01T19:28:09.705Z,2.45
2022-09-01T19:30:51.842Z,2.50
2022-09-01T19:33:26.607Z,2.30
2022-09-01T19:35:59.864Z,2.25
2022-09-01T19:38:31.644Z,2.35
2022-09-01T19:41:29.193Z,2.38
2022-09-01T19:44:08.404Z,2.33
2022-09-01T19:46:47.380Z,2.30
2022-09-01T19:49:31.581Z,2.38
2022-09-01T19:51:58.604Z,2.30
2022-09-01T19:54:34.860Z,2.80
2022-09-01T19:57:06.381Z,2.45
2022-09-01T19:59:58.168Z,2.33
2022-09-01T20:02:55.007Z,2.25
2022-09-01T20:05:42.752Z,2.10
2022-09-01T20:08:33.990Z,2.38
2022-09-01T20:11:34.020Z,2.67
2022-09-01T20:14:29.021Z,2.38
2022-09-01T20:17:01.241Z,2.30
2022-09-01T20:19:29.998Z,2.38
2022-09-01T20:22:18.138Z,2.40
2022-09-01T20:24:45.742Z,2.20
2022-09-01T20:27:50.628Z,2.00
2022-09-01T20:30:27.143Z,1.98
2022-09-01T20:33:15.331Z,2.00
2022-09-01T20:35:56.511Z,1.45
2022-09-01T20:39:11.663Z,1.60
2022-09-01T20:41:57.530Z,2.05
2022-09-01T20:44:30.598Z,1.60
2022-09-01T20:46:57.938Z,1.80
2022-09-01T20:49:24.963Z,1.95
2022-09-01T20:52:33.286Z,1.90
2022-09-01T20:55:12.513Z,1.73
2022-09-01T20:57:51.412Z,1.85
2022-09-01T21:00:26.032Z,1.90
2022-09-01T21:03:20.727Z,1.95
2022-09-01T21:05:52.257Z,1.65
2022-09-01T21:08:49.032Z,1.90
2022-09-01T21:11:46.001Z,1.63
2022-09-01T21:14:35.713Z,1.52
2022-09-01T21:17:09.052Z,1.33
2022-09-01T21:19:35.947Z,1.30
2022-09-01T21:22:18.492Z,1.20
2022-09-01T21:24:48.224Z,1.48
2022-09-01T21:27:19.143Z,1.30
2022-09-01T21:30:07.847Z,1.40
2022-09-01T21:32:35.047Z,1.20
2022-09-01T21:35:03.795Z,1.25
2022-09-01T21:37:30.811Z,1.20
2022-09-01T21:39:58.109Z,1.20
2022-09-01T21:42:35.616Z,1.17
2022-09-01T21:45:05.112Z,1.30
2022-09-01T21:47:32.799Z,1.00
2022-09-01T21:50:00.162Z,1.45
2022-09-01T21:52:27.427Z,1.20
2022-09-01T21:54:54.479Z,1.58
2022-09-01T21:57:23.125Z,1.42
2022-09-01T21:59:51.481Z,1.33
2022-09-01T22:02:20.130Z,1.10
2022-09-01T22:04:48.956Z,1.42
2022-09-01T22:07:19.158Z,1.15
2022-09-01T22:09:47.238Z,1.10
2022-09-01T22:12:14.710Z,1.33
2022-09-01T22:14:41.697Z,1.13
2022-09-01T22:17:08.663Z,1.10
2022-09-01T22:19:36.680Z,1.10
2022-09-01T22:22:04.071Z,1.40
2022-09-01T22:24:31.563Z,1.20
2022-09-01T22:26:58.800Z,1.13
2022-09-01T22:29:25.708Z,1.40
2022-09-01T22:31:52.970Z,1.20
2022-09-01T22:34:19.908Z,1.17
2022-09-01T22:36:49.244Z,1.10
2022-09-01T22:39:17.770Z,1.02
2022-09-01T22:41:44.862Z,1.17
2022-09-01T22:44:12.722Z,1.40
2022-09-01T22:46:40.100Z,1.10
2022-09-01T22:49:08.157Z,1.30
2022-09-01T22:51:37.235Z,1.13
2022-09-01T22:54:04.338Z,1.35
2022-09-01T22:56:33.013Z,1.05
2022-09-01T22:59:02.677Z,1.15
2022-09-01T23:01:33.248Z,1.33
2022-09-01T23:04:01.970Z,1.02
2022-09-01T23:06:31.235Z,1.08
2022-09-01T23:09:01.308Z,1.27
2022-09-01T23:11:28.711Z,1.00
2022-09-01T23:13:56.076Z,1.40
2022-09-01T23:16:24.875Z,1.30
2022-09-01T23:18:52.862Z,1.17
2022-09-01T23:21:24.107Z,1.13
2022-09-01T23:23:58.542Z,1.10
2022-09-01T23:28:53.967Z,1.00
2022-09-01T23:31:24.741Z,1.10
2022-09-01T23:33:52.304Z,0.93
2022-09-01T23:36:22.236Z,1.25
2022-09-01T23:38:49.865Z,1.52
2022-09-01T23:41:23.370Z,1.20
2022-09-01T23:43:51.488Z,0.90
2022-09-01T23:46:21.745Z,1.60
2022-09-01T23:48:48.876Z,1.13
2022-09-01T23:51:18.214Z,1.10
2022-09-01T23:53:46.771Z,1.20
2022-09-01T23:56:17.064Z,1.35
2022-09-01T23:58:44.374Z,1.55
